Al Ain, UAE

10:08 AM GST on June 03, 2015 (GMT +0400)
Al Ain International | | Change Station
CLOSE
Current Station
Airport
Location: Al Ain,
Elevation: 869 ft
Nearby Weather Stations

Elev 869 ft 24.26 °N, 55.61 °E | Updated 8 minutes ago

Clear
Clear
109 °F
Feels Like 109 °F
N
10
Wind Variable Wind from SSE

Today
High -- | Low -- °F
--% Chance of Precip.
Yesterday
High -- | Low -- °F
Precip. -- in
5:29 AM 7:02 PM
Full, 100% visible
Pressure 29.71 in
Visibility -9999.0 miles
Clouds
Dew Point 34 °F
Humidity 7%
Rainfall 0.00 in
Snow Depth Not available.
UV Not available.
Pollen Not available.
Air Quality Not available.
Flu Activity Not available.
METAR OMAL 030600Z 15009KT 110V170 CAVOK 43/01 Q1006 A2971 NOSIG

More Conditions Fewer Conditions

Pressure 29.71 in
Visibility -9999.0 miles
Clouds
Dew Point 34 °F
Humidity 7%
Rainfall 0.00 in
Snow Depth Not available.
UV Not available.
Pollen Not available.
Air Quality Not available.
Flu Activity Not available.
METAR OMAL 030600Z 15009KT 110V170 CAVOK 43/01 Q1006 A2971 NOSIG

More Conditions Fewer Conditions

10-Day Weather Forecast

×

Almanac

Astronomy

Jun. 03, 2015 Rise Set
Actual Time
Civil Twilight
Nautical Twilight
Astronomical Twilight
Moon
Length of Visible Light
Length of Day
Tomorrow will be .
, % of the Moon is Illuminated

Today's Extremes

Country Highs Country Lows

Community

WunderPhotos

Upload Photos

1,826,179 photos uploaded!

WunderBlogs® & News

Nearby

Air Quality

  Air Quality AQ Index Pollutant
Not available.

Snow Depth

Station Depth Elevation

Earthquake Activity

City Distance Mag. Time & Date
Minimum magnitude displayed is 2.5.

Coastal Water Temperatures

Place Temperature

Stations

Nearby Weather Stations

Station Location Temp. Windchill Dew Point Humidity Wind Precip. Elev Updated Type